Swansea, SC (29160)

6:40 AM EDT on August 02, 2015 (GMT -0400)
Gaston SC | | Change Station
CLOSE
Current Station
Personal Weather Station
Location: Gaston, SC
Elevation: 436 ft
Nearby Weather Stations

Elev 436 ft 33.80 °N, 81.12 °W | Updated 12 minutes ago

Overcast
Overcast
73.8 °F
Feels Like 72 °F
N
0.0
Wind Variable Wind from ESE

Today
High -- | Low -- °F
--% Chance of Precip.
Yesterday
High -- | Low -- °F
Precip. -- in
6:36 AM 8:23 PM
Waning Gibbous, 94% visible
Pressure 29.92 in
Visibility 7.0 miles
Clouds Scattered Clouds 700 ft
Scattered Clouds 11000 ft
Heat Index 72 °F
Dew Point 71 °F
Humidity 91%
Rainfall 0.00 in
Snow Depth Not available.
UV 0 out of 12
Pollen 5.10 out of 12
Air Quality Not available.
Flu Activity Not available.
SPECI KCAE 021028Z 00000KT 7SM SCT007 SCT110 24/22 A2992 RMK AO2 T02440222

More Conditions Fewer Conditions

Pressure 29.92 in
Visibility 7.0 miles
Clouds Scattered Clouds 700 ft
Scattered Clouds 11000 ft
Heat Index 72 °F
Dew Point 71 °F
Humidity 91%
Rainfall 0.00 in
Snow Depth Not available.
UV 0 out of 12
Pollen 5.10 out of 12
Air Quality Not available.
Flu Activity Not available.
SPECI KCAE 021028Z 00000KT 7SM SCT007 SCT110 24/22 A2992 RMK AO2 T02440222

More Conditions Fewer Conditions

10-Day Weather Forecast

×

Almanac

Astronomy

Aug. 02, 2015 Rise Set
Actual Time
Civil Twilight
Nautical Twilight
Astronomical Twilight
Moon
Length of Visible Light
Length of Day
Tomorrow will be .
, % of the Moon is Illuminated

Today's Extremes

State Highs State Lows

Community

WunderPhotos

Upload Photos

1,843,218 photos uploaded!

WunderBlogs® & News

Nearby

Air Quality

  Air Quality AQ Index Pollutant
Not available.

Snow Depth

Station Depth Elevation

Earthquake Activity

City Distance Mag. Time & Date
Minimum magnitude displayed is 2.5.

Coastal Water Temperatures

Place Temperature

Stations

Nearby Weather Stations

Station Location Temp. Windchill Dew Point Humidity Wind Precip. Elev Updated Type